CW8593 Gava ES current weather conditions

sailwx.info

Wind from 224

Air temperature 25.0° C
Dewpoint 21.1° C

Last reported at 2020-Aug-05 21:08 UTC.
Time now 2020-Aug-05 22:08 UTC

Location: N 41°18' E 001°60'.
View on Google Maps.

See reports from other nearby stations

  
Tides and Currents Weather Stations Pressure Air Temp Water Temp Dewpoint Dewpoint Depression Visibility Wind Speed Wind Dir Waves Ship Positions
date/time (UTC)wind fromknots sea level pressurealtimeterstation pressurevisibilityair tempwater tempwave heightnotes
2020-Aug-05 21:08 224 25.0
2020-Aug-05 21:03 224 25.0
2020-Aug-05 20:58 224 25.0
2020-Aug-05 20:53 224 25.0
2020-Aug-05 20:48 224 25.0
2020-Aug-05 20:33 224 25.0
2020-Aug-05 20:18 224 25.0
2020-Aug-05 20:08 224 2 gusting 4 25.0
2020-Aug-05 20:03 222 1 gusting 2 25.6
2020-Aug-05 19:58 222 25.6
2020-Aug-05 19:53 222 25.6
2020-Aug-05 19:48 222 26.1
2020-Aug-05 19:38 222 0 gusting 2 26.1
2020-Aug-05 19:33 222 26.1
2020-Aug-05 19:28 222 26.1
2020-Aug-05 19:23 222 0 gusting 2 26.1
2020-Aug-05 19:13 214 0 gusting 5 26.1
2020-Aug-05 19:08 214 0 gusting 2 26.1
2020-Aug-05 19:03 214 0 gusting 5 26.1
2020-Aug-05 18:58 203 26.1
2020-Aug-05 18:48 205 1 gusting 4 26.1
2020-Aug-05 18:43 206 26.1
2020-Aug-05 18:23 203 4 gusting 6 26.7
2020-Aug-05 18:13 219 1 gusting 7 26.7
2020-Aug-05 18:08 192 5 gusting 11 26.7
2020-Aug-05 17:53 237 2 gusting 10 26.7
2020-Aug-05 17:43 194 2 gusting 7 27.2
2020-Aug-05 17:38 208 4 gusting 10 26.7
2020-Aug-05 17:28 220 4 gusting 11 26.7
2020-Aug-05 17:18 161 4 gusting 7 27.2
2020-Aug-05 17:13 237 5 gusting 10 27.2
2020-Aug-05 17:08 240 1 gusting 7 27.8
2020-Aug-05 17:03 214 5 gusting 7 27.2
2020-Aug-05 16:58 197 1 gusting 7 27.8
2020-Aug-05 16:53 194 5 gusting 10 27.2
2020-Aug-05 16:33 200 4 gusting 13 27.2
2020-Aug-05 16:28 182 6 gusting 12 27.2
2020-Aug-05 16:23 205 4 gusting 10 27.2
2020-Aug-05 16:13 235 6 gusting 14 27.2
2020-Aug-05 16:08 202 7 gusting 13 27.2
2020-Aug-05 16:03 190 6 gusting 13 27.2
2020-Aug-05 15:48 210 6 gusting 15 27.2
2020-Aug-05 15:28 225 5 gusting 11 27.2
2020-Aug-05 15:13 194 5 gusting 17 27.2
2020-Aug-05 15:08 177 6 gusting 13 27.2
2020-Aug-05 15:03 216 8 gusting 13 27.2
2020-Aug-05 14:58 187 8 gusting 14 26.7
2020-Aug-05 14:53 185 7 gusting 12 27.2
2020-Aug-05 14:48 226 5 gusting 12 27.8
2020-Aug-05 14:43 180 4 gusting 10 27.8
2020-Aug-05 14:28 195 6 gusting 12 27.2
2020-Aug-05 14:23 239 7 gusting 13 27.2
2020-Aug-05 14:18 207 5 gusting 13 27.2
2020-Aug-05 14:13 190 6 gusting 14 27.2
2020-Aug-05 14:03 218 4 gusting 11 27.8
2020-Aug-05 13:58 179 7 gusting 14 27.2
2020-Aug-05 13:43 161 7 gusting 13 26.7
2020-Aug-05 13:33 224 6 gusting 13 26.7
2020-Aug-05 13:28 195 6 gusting 17 27.2
2020-Aug-05 13:23 156 7 gusting 14 27.2
2020-Aug-05 13:13 170 5 gusting 14 27.8
2020-Aug-05 13:08 209 6 gusting 13 27.2
2020-Aug-05 13:03 163 6 gusting 13 27.2
2020-Aug-05 12:58 172 4 gusting 13 27.2
2020-Aug-05 12:48 180 8 gusting 13 26.7
2020-Aug-05 12:38 137 9 gusting 14 26.7
2020-Aug-05 12:28 171 5 gusting 13 27.2
2020-Aug-05 12:23 230 6 gusting 12 27.2
2020-Aug-05 12:18 162 6 gusting 12 27.2
2020-Aug-05 12:03 181 7 gusting 14 26.7
2020-Aug-05 11:58 135 7 gusting 12 27.2
2020-Aug-05 11:48 178 6 gusting 11 27.2
2020-Aug-05 11:43 106 5 gusting 11 27.2
2020-Aug-05 11:38 144 7 gusting 13 26.7
2020-Aug-05 11:33 133 6 gusting 12 27.2
2020-Aug-05 11:28 144 4 gusting 12 27.2
2020-Aug-05 11:18 144 5 gusting 11 27.2
2020-Aug-05 11:13 146 5 gusting 11 27.2
2020-Aug-05 11:08 125 7 gusting 13 26.7
2020-Aug-05 10:53 147 7 gusting 12 27.2
2020-Aug-05 10:43 151 5 gusting 11 27.2
2020-Aug-05 10:33 175 5 gusting 10 26.7
2020-Aug-05 10:28 152 6 gusting 12 26.7
2020-Aug-05 10:23 153 5 gusting 12 26.7
2020-Aug-05 10:18 136 3 gusting 10 27.8
2020-Aug-05 10:03 148 4 gusting 10 27.2
2020-Aug-05 09:58 122 4 gusting 10 27.2
2020-Aug-05 09:53 173 2 gusting 7 27.2
2020-Aug-05 09:43 170 2 gusting 6 26.7
2020-Aug-05 09:38 175 5 gusting 10 26.7
2020-Aug-05 09:28 208 1 gusting 8 26.7
2020-Aug-05 09:23 247 4 gusting 7 26.7
2020-Aug-05 09:18 161 1 gusting 6 27.2
2020-Aug-05 09:13 220 1 gusting 4 26.7
2020-Aug-05 09:08 221 4 gusting 6 26.1
2020-Aug-05 08:43 138 0 gusting 2 26.1
2020-Aug-05 08:38 177 1 gusting 6 25.6
2020-Aug-05 08:28 141 26.1
2020-Aug-05 08:18 160 1 gusting 6 25.6
2020-Aug-05 08:13 110 1 gusting 6 26.1
2020-Aug-05 08:08 103 1 gusting 7 26.1
2020-Aug-05 08:03 089 5 gusting 7 25.6
2020-Aug-05 07:58 116 1 gusting 6 25.6
2020-Aug-05 07:48 092 2 gusting 6 26.1
2020-Aug-05 07:43 003 26.1
2020-Aug-05 07:38 003 25.6
2020-Aug-05 07:33 003 2 gusting 4 25.0
2020-Aug-05 07:23 061 4 gusting 7 25.0
2020-Aug-05 07:18 032 1 gusting 6 25.6
2020-Aug-05 06:53 350 2 gusting 6 24.4
2020-Aug-05 06:48 004 2 gusting 4 24.4
2020-Aug-05 06:33 345 0 gusting 5 23.9
2020-Aug-05 06:28 344 2 gusting 7 23.3
2020-Aug-05 06:13 325 1 gusting 5 23.3
2020-Aug-05 06:08 340 2 gusting 5 22.8
2020-Aug-05 06:03 306 3 gusting 8 22.8
2020-Aug-05 05:58 307 4 gusting 7 22.8
2020-Aug-05 05:48 327 2 gusting 4 22.2
2020-Aug-05 05:43 312 4 gusting 7 22.2
2020-Aug-05 05:38 304 4 gusting 8 22.2
2020-Aug-05 05:33 316 4 gusting 7 22.2
2020-Aug-05 05:28 316 4 gusting 7 22.2
2020-Aug-05 05:23 309 4 gusting 6 22.2
2020-Aug-05 05:13 316 4 gusting 7 22.2
2020-Aug-05 05:08 312 5 gusting 8 22.2
2020-Aug-05 05:03 320 5 gusting 8 22.2
2020-Aug-05 04:53 325 2 gusting 7 21.7
2020-Aug-05 04:48 313 2 gusting 6 22.2
2020-Aug-05 04:38 310 4 gusting 8 21.7
2020-Aug-05 04:33 314 5 gusting 8 21.7
2020-Aug-05 04:18 321 4 gusting 10 21.7
2020-Aug-05 03:53 331 1 gusting 2 22.2
2020-Aug-05 03:48 331 2 gusting 4 22.2
2020-Aug-05 03:38 323 1 gusting 6 22.2
2020-Aug-05 03:33 322 2 gusting 6 22.2
2020-Aug-05 03:28 346 2 gusting 5 22.2
2020-Aug-05 03:18 334 1 gusting 2 22.2
2020-Aug-05 03:13 330 2 gusting 6 22.2
2020-Aug-05 02:58 345 2 gusting 6 22.2
2020-Aug-05 02:53 308 3 gusting 6 22.2
2020-Aug-05 02:43 328 2 gusting 5 22.8
2020-Aug-05 02:13 317 1 gusting 6 22.2
2020-Aug-05 02:08 309 1 gusting 6 22.8
2020-Aug-05 02:03 323 2 gusting 7 22.8
2020-Aug-05 01:53 317 4 gusting 8 22.8
2020-Aug-05 01:48 303 2 gusting 7 22.8
2020-Aug-05 01:43 322 1 gusting 5 22.8
2020-Aug-05 01:38 319 2 gusting 6 22.8
2020-Aug-05 01:28 323 2 gusting 4 22.8
2020-Aug-05 01:18 317 1 gusting 6 22.8
2020-Aug-05 01:13 310 2 gusting 6 22.8
2020-Aug-05 01:03 305 3 gusting 6 22.8
2020-Aug-05 00:58 311 1 gusting 4 22.8
2020-Aug-05 00:48 311 2 gusting 6 22.8
2020-Aug-05 00:43 307 1 gusting 6 22.8
2020-Aug-05 00:38 299 22.8
2020-Aug-04 23:38 306 1 gusting 2 23.3
2020-Aug-04 23:33 301 1 gusting 2 23.3
2020-Aug-04 23:28 299 0 gusting 2 23.3
2020-Aug-04 23:23 299 23.3
2020-Aug-04 23:08 319 1 gusting 4 23.3
2020-Aug-04 22:58 317 0 gusting 4 23.3
2020-Aug-04 22:53 315 1 gusting 2 23.3
2020-Aug-04 22:48 315 1 gusting 2 23.3
2020-Aug-04 22:38 313 1 gusting 4 23.3
2020-Aug-04 22:28 280 1 gusting 5 23.3
2020-Aug-04 22:23 273 0 gusting 2 23.3
2020-Aug-04 22:18 249 0 gusting 2 23.3
2020-Aug-04 22:08 248 23.3
2020-Aug-04 21:53 248 23.3
2020-Aug-04 21:28 248 23.3
2020-Aug-04 21:23 248 23.3
2020-Aug-04 21:18 248 23.3
2020-Aug-04 21:13 248 23.3
2020-Aug-04 21:08 248 23.3
2020-Aug-04 21:03 245 23.3
2020-Aug-04 20:43 245 23.3
2020-Aug-04 20:33 245 23.3
2020-Aug-04 20:28 245 23.3
2020-Aug-04 20:23 245 23.3
2020-Aug-04 20:08 245 23.9
2020-Aug-04 19:53 245 23.9
2020-Aug-04 19:48 245 23.3
2020-Aug-04 19:38 245 23.9
2020-Aug-04 19:33 245 23.9
2020-Aug-04 19:28 245 23.9
2020-Aug-04 19:18 245 0 gusting 2 23.9
2020-Aug-04 19:08 245 1 gusting 2 24.4
2020-Aug-04 18:58 244 24.4
2020-Aug-04 18:53 233 24.4
2020-Aug-04 18:43 231 0 gusting 5 25.0
2020-Aug-04 18:38 233 0 gusting 5 25.0
2020-Aug-04 18:33 238 1 gusting 6 25.0
2020-Aug-04 18:23 234 2 gusting 6 25.6
2020-Aug-04 18:18 209 0 gusting 5 25.0
2020-Aug-04 18:13 208 2 gusting 6 25.0
2020-Aug-04 18:08 185 1 gusting 6 25.0
2020-Aug-04 18:03 192 3 gusting 6 25.0
2020-Aug-04 17:58 209 4 gusting 7 25.6
2020-Aug-04 17:48 229 1 gusting 6 25.6
2020-Aug-04 17:43 215 3 gusting 10 25.0
2020-Aug-04 17:33 188 5 gusting 10 25.0
2020-Aug-04 17:28 160 5 gusting 10 25.0
2020-Aug-04 17:18 196 3 gusting 10 25.0
2020-Aug-04 17:13 191 6 gusting 11 25.0
2020-Aug-04 17:08 238 5 gusting 11 25.0
2020-Aug-04 17:03 209 4 gusting 12 25.6
2020-Aug-04 16:53 176 2 gusting 13 25.0
2020-Aug-04 16:48 195 6 gusting 12 25.0
2020-Aug-04 16:43 210 3 gusting 13 25.6
2020-Aug-04 16:38 207 3 gusting 10 25.6
2020-Aug-04 16:33 166 4 gusting 13 25.6
2020-Aug-04 16:28 168 6 gusting 13 25.0
2020-Aug-04 16:18 172 6 gusting 11 24.4
2020-Aug-04 16:08 190 8 gusting 15 25.0
2020-Aug-04 16:03 176 6 gusting 13 25.0
2020-Aug-04 15:53 180 6 gusting 13 25.0
2020-Aug-04 15:48 181 6 gusting 15 25.0
2020-Aug-04 15:43 149 7 gusting 17 25.0
2020-Aug-04 15:38 174 7 gusting 17 25.0
2020-Aug-04 15:33 203 4 gusting 11 25.6
2020-Aug-04 15:28 159 6 gusting 13 25.6
2020-Aug-04 15:18 208 8 gusting 14 25.6
2020-Aug-04 15:08 191 6 gusting 13 26.1
2020-Aug-04 15:03 182 9 gusting 17 25.6
2020-Aug-04 14:48 189 7 gusting 19 26.1
2020-Aug-04 14:43 200 8 gusting 17 25.6
2020-Aug-04 14:33 187 6 gusting 15 25.6
2020-Aug-04 14:23 145 6 gusting 14 26.1
2020-Aug-04 14:18 159 9 gusting 15 25.6
2020-Aug-04 14:13 172 5 gusting 11 26.1
2020-Aug-04 14:08 172 5 gusting 11 26.1
2020-Aug-04 14:03 178 5 gusting 15 26.1
2020-Aug-04 13:58 219 7 gusting 12 25.6
2020-Aug-04 12:48 166 7 gusting 15 25.0
2020-Aug-04 12:43 124 5 gusting 10 25.6
2020-Aug-04 12:28 161 7 gusting 18 25.0
2020-Aug-04 12:08 184 8 gusting 14 25.0
2020-Aug-04 12:03 148 8 gusting 13 24.4
2020-Aug-04 11:58 097 9 gusting 17 24.4
2020-Aug-04 11:48 125 7 gusting 15 24.4
2020-Aug-04 11:43 163 7 gusting 13 24.4
2020-Aug-04 11:38 148 6 gusting 12 24.4
2020-Aug-04 11:33 159 6 gusting 17 25.0
2020-Aug-04 11:23 199 8 gusting 15 24.4
2020-Aug-04 11:13 156 7 gusting 14 25.0
2020-Aug-04 11:08 143 8 gusting 15 25.0
2020-Aug-04 11:03 175 6 gusting 15 25.0
2020-Aug-04 10:53 191 6 gusting 17 25.0
2020-Aug-04 10:38 137 6 gusting 18 25.0
2020-Aug-04 10:33 179 8 gusting 14 25.0
2020-Aug-04 10:23 192 9 gusting 17 24.4
2020-Aug-04 10:13 101 8 gusting 14 23.9
2020-Aug-04 10:08 102 11 gusting 19 23.9
2020-Aug-04 09:58 186 4 gusting 14 25.0
2020-Aug-04 09:53 149 8 gusting 14 24.4
2020-Aug-04 09:48 135 8 gusting 14 24.4
2020-Aug-04 09:43 151 8 gusting 13 25.0
2020-Aug-04 09:33 165 4 gusting 13 25.0
2020-Aug-04 09:28 126 8 gusting 14 24.4
2020-Aug-04 09:13 091 10 gusting 15 23.9
2020-Aug-04 09:08 094 6 gusting 12 23.9
2020-Aug-04 08:58 097 6 gusting 13 23.9
2020-Aug-04 08:53 107 7 gusting 13 23.9
2020-Aug-04 08:38 113 11 gusting 17 23.9
2020-Aug-04 08:23 088 6 gusting 12 23.9
2020-Aug-04 08:18 119 8 gusting 13 23.9
2020-Aug-04 08:13 111 3 gusting 7 23.9
2020-Aug-04 08:08 090 4 gusting 10 23.9
2020-Aug-04 08:03 146 4 gusting 8 23.9
2020-Aug-04 07:48 117 5 gusting 10 23.9
2020-Aug-04 07:23 088 1 gusting 6 24.4
2020-Aug-04 07:18 053 1 gusting 4 24.4
2020-Aug-04 07:13 022 3 gusting 6 23.9
2020-Aug-04 06:53 345 2 gusting 6 23.3
2020-Aug-04 06:48 342 5 gusting 7 22.8
2020-Aug-04 06:43 343 1 gusting 5 23.3
2020-Aug-04 06:33 326 0 gusting 2 22.8
2020-Aug-04 06:28 323 0 gusting 2 22.8
2020-Aug-04 06:23 321 1 gusting 4 22.8
2020-Aug-04 06:13 305 22.2
2020-Aug-04 06:08 305 22.2
2020-Aug-04 05:58 305 21.7
2020-Aug-04 05:53 305 21.7
2020-Aug-04 05:48 305 21.1
2020-Aug-04 05:43 305 20.6
2020-Aug-04 05:28 305 0 gusting 1 20.0
2020-Aug-04 05:23 305 20.0
2020-Aug-04 05:18 305 0 gusting 1 20.0
2020-Aug-04 05:03 305 20.0
2020-Aug-04 04:58 305 20.6
2020-Aug-04 04:53 305 1 gusting 2 20.6
2020-Aug-04 04:48 305 21.1
2020-Aug-04 04:43 305 21.1
2020-Aug-04 04:38 305 21.1
2020-Aug-04 04:33 305 21.1
2020-Aug-04 04:03 300 21.7
2020-Aug-04 03:23 300 1 gusting 4 22.2
2020-Aug-04 03:13 257 0 gusting 2 22.2
2020-Aug-04 03:08 257 0 gusting 6 22.2
2020-Aug-04 03:03 256 6 gusting 7 22.2
2020-Aug-04 02:58 289 0 gusting 4 22.2
2020-Aug-04 02:53 294 1 gusting 4 21.7
2020-Aug-04 02:48 294 3 gusting 6 22.2
2020-Aug-04 02:38 302 22.2
2020-Aug-04 02:33 302 22.8
2020-Aug-04 02:23 302 22.2
2020-Aug-04 02:08 302 1 gusting 2 22.2
2020-Aug-04 01:58 281 0 gusting 5 22.2
2020-Aug-04 01:43 302 4 gusting 7 21.7
2020-Aug-04 01:28 353 1 gusting 6 21.7
2020-Aug-04 01:23 314 21.7
2020-Aug-04 01:03 350 2 gusting 6 21.7
2020-Aug-04 00:58 304 5 gusting 7 21.7
2020-Aug-04 00:53 306 1 gusting 4 21.7
2020-Aug-04 00:43 317 0 gusting 2 21.7
2020-Aug-04 00:38 317 21.7
2020-Aug-04 00:33 317 2 gusting 4 22.2
2020-Aug-04 00:28 326 0 gusting 2 22.2
2020-Aug-04 00:18 334 22.2
2020-Aug-04 00:03 345 0 gusting 6 22.8
2020-Aug-03 23:48 085 1 gusting 6 22.8
2020-Aug-03 23:43 196 0 gusting 2 23.3
2020-Aug-03 23:38 212 3 gusting 5 23.3
2020-Aug-03 23:33 201 2 gusting 4 23.9
2020-Aug-03 23:23 181 2 gusting 6 24.4
2020-Aug-03 23:18 213 0 gusting 4 24.4
2020-Aug-03 23:13 194 0 gusting 4 24.4
2020-Aug-03 23:08 176 1 gusting 7 24.4
2020-Aug-03 22:53 205 0 gusting 4 25.0
2020-Aug-03 22:48 202 2 gusting 7 24.4
2020-Aug-03 22:23 182 2 gusting 6 25.0
2020-Aug-03 22:08 188 1 gusting 8 25.0
2020-Aug-03 22:03 195 2 gusting 6 25.0